Granville, West Virginia
Current Conditions -  °F | °C
As of 2:53 PM on Thursday 29 Jan 2015 (Local Time) from KMGW Reporting Station
Overcast Overcast  
Wind Chill: 39°   Ceiling: 3800
Heat Index: 42°   Visibility: 10mi
Dew Point: 34°   Wind: 5mph
Humidity: 73%   Direction: 190°S
Pressure: 29.84"   Gusts: NA
Location:  39.65°N, 79.99°W
Report Text: KMGW 291953Z 19004KT 10SM OVC038 06/01 A2984 RMK AO2 SLP117 T00560011
Loading
Personal Weather Stations






























Interactive Weather Map New forecast layout! Learn more

10-Day Weather Forecast

Advertisements
Track Severe Weather on mobile